createdAt,value
2019-03-12T00:01:58.967Z,75233.98
2019-03-12T00:04:39.915Z,75228.02
2019-03-12T00:07:20.567Z,75228.02
2019-03-12T00:10:01.250Z,75232.00
2019-03-12T00:12:41.837Z,75232.00
2019-03-12T00:15:22.923Z,75251.87
2019-03-12T00:18:03.269Z,75247.89
2019-03-12T00:20:43.903Z,75248.89
2019-03-12T00:23:24.790Z,75246.90
2019-03-12T00:26:05.495Z,75251.87
2019-03-12T00:28:46.967Z,75261.80
2019-03-12T00:31:27.376Z,75267.77
2019-03-12T00:34:08.550Z,75275.71
2019-03-12T00:36:49.844Z,75271.73
2019-03-12T00:39:30.603Z,75267.77
2019-03-12T00:42:11.617Z,75267.77
2019-03-12T00:44:52.775Z,75263.79
2019-03-12T00:47:33.714Z,75266.77
2019-03-12T00:50:14.952Z,75269.75
2019-03-12T00:52:55.598Z,75262.80
2019-03-12T00:55:36.107Z,75253.86
2019-03-12T00:58:17.253Z,75255.84
2019-03-12T01:00:58.206Z,75257.83
2019-03-12T01:03:39.165Z,75237.96
2019-03-12T01:06:20.716Z,75232.00
2019-03-12T01:09:01.956Z,75239.95
2019-03-12T01:11:43.037Z,75231.00
2019-03-12T01:14:23.929Z,75213.13
2019-03-12T01:17:05.195Z,75206.17
2019-03-12T01:19:45.860Z,75203.19
2019-03-12T01:22:26.586Z,75195.24
2019-03-12T01:25:07.334Z,75198.22
2019-03-12T01:27:48.709Z,75190.27
2019-03-12T01:30:30.021Z,75182.33
2019-03-12T01:33:10.966Z,75169.41
2019-03-12T01:35:52.548Z,75156.50
2019-03-12T01:38:33.525Z,75136.63
2019-03-12T01:41:14.825Z,75127.69
2019-03-12T01:43:55.750Z,75120.73
2019-03-12T01:46:36.703Z,75104.84
2019-03-12T01:49:17.694Z,75082.98
2019-03-12T01:51:58.648Z,75070.08
2019-03-12T01:54:39.015Z,75039.28
2019-03-12T01:57:20.568Z,75027.36
2019-03-12T02:00:01.559Z,75027.36
2019-03-12T02:02:44.386Z,75021.39
2019-03-12T02:05:25.160Z,75012.45
2019-03-12T02:08:06.128Z,75010.47
2019-03-12T02:10:46.998Z,74988.61
2019-03-12T02:13:28.284Z,74975.70
2019-03-12T02:16:09.180Z,74968.75
2019-03-12T02:18:50.012Z,74964.77
2019-03-12T02:21:31.121Z,74951.86
2019-03-12T02:24:12.089Z,74941.92
2019-03-12T02:26:53.380Z,74931.99
2019-03-12T02:29:34.309Z,74920.07
2019-03-12T02:32:15.609Z,74926.03
2019-03-12T02:34:56.705Z,74919.08
2019-03-12T02:37:38.178Z,74909.14
2019-03-12T02:40:19.749Z,74922.06
2019-03-12T02:43:01.028Z,74953.84
2019-03-12T02:45:42.339Z,74944.91
2019-03-12T02:48:23.612Z,74959.80
2019-03-12T02:51:04.496Z,74965.77
2019-03-12T02:53:45.436Z,74923.05
2019-03-12T02:56:27.160Z,74909.14
2019-03-12T02:59:08.080Z,74910.14
2019-03-12T03:01:49.116Z,74926.03
2019-03-12T03:04:30.459Z,74896.23
2019-03-12T03:07:11.735Z,74890.27
2019-03-12T03:09:53.528Z,74991.59
2019-03-12T03:12:34.602Z,75045.23
2019-03-12T03:15:15.750Z,74984.64
2019-03-12T03:17:56.773Z,74931.99
2019-03-12T03:20:38.169Z,74878.35
2019-03-12T03:23:19.105Z,74852.52
2019-03-12T03:25:59.999Z,74804.84
2019-03-12T03:28:41.517Z,74801.86
2019-03-12T03:31:22.826Z,74842.59
2019-03-12T03:34:03.966Z,74923.05
2019-03-12T03:36:44.638Z,74887.29
2019-03-12T03:39:26.101Z,74877.36
2019-03-12T03:42:07.106Z,74817.76
2019-03-12T03:44:48.552Z,74833.66
2019-03-12T03:47:29.138Z,74805.84
2019-03-12T03:50:09.902Z,74888.28
2019-03-12T03:52:51.134Z,74896.23
2019-03-12T03:55:32.407Z,74898.22
2019-03-12T03:58:13.047Z,74836.63
2019-03-12T04:00:54.696Z,74775.05
2019-03-12T04:03:35.678Z,74762.13
2019-03-12T04:06:16.220Z,74727.36
2019-03-12T04:08:56.999Z,74703.52
2019-03-12T04:11:38.577Z,74681.67
2019-03-12T04:14:20.369Z,74623.06
2019-03-12T04:19:45.848Z,74629.03
2019-03-12T04:22:27.115Z,74622.08
2019-03-12T04:25:08.186Z,74609.16
2019-03-12T04:27:49.043Z,74693.59
2019-03-12T04:30:30.335Z,74727.36
2019-03-12T04:33:11.381Z,74694.58
2019-03-12T04:35:52.274Z,74633.99
2019-03-12T04:38:33.508Z,74645.91
2019-03-12T04:41:14.920Z,74655.84
2019-03-12T04:43:56.110Z,74665.78
2019-03-12T04:52:18.476Z,74700.55
2019-03-12T04:54:59.537Z,74726.38
2019-03-12T04:57:41.447Z,74661.80
2019-03-12T05:00:22.201Z,74596.25
2019-03-12T05:03:02.950Z,74570.42
2019-03-12T05:05:43.706Z,74617.11
2019-03-12T05:08:24.838Z,74608.17
2019-03-12T05:11:05.864Z,74607.17
2019-03-12T05:13:47.046Z,74617.11
2019-03-12T05:16:27.741Z,74556.52
2019-03-12T05:19:08.509Z,74561.48
2019-03-12T05:21:49.540Z,74495.93
2019-03-12T05:24:30.324Z,74491.95
2019-03-12T05:27:10.722Z,74450.23
2019-03-12T05:29:51.686Z,74449.25
2019-03-12T05:32:32.580Z,74425.41
2019-03-12T05:35:13.844Z,74444.28
2019-03-12T05:37:54.627Z,74508.84
2019-03-12T05:40:35.055Z,74481.03
2019-03-12T05:43:15.030Z,74457.19
2019-03-12T05:45:55.764Z,74454.21
2019-03-12T05:48:35.929Z,74510.83
2019-03-12T05:51:16.686Z,74548.57
2019-03-12T05:53:57.840Z,74496.92
2019-03-12T05:56:39.291Z,74472.09
2019-03-12T05:59:21.402Z,74468.12
2019-03-12T06:02:02.200Z,74452.23
2019-03-12T06:04:42.921Z,74397.59
2019-03-12T06:07:24.507Z,74391.64
2019-03-12T06:10:05.066Z,74453.22
2019-03-12T06:12:45.457Z,74446.27
2019-03-12T06:15:25.704Z,74405.55
2019-03-12T06:18:10.155Z,74408.52
2019-03-12T06:20:50.937Z,74407.53
2019-03-12T06:23:34.596Z,74364.82
2019-03-12T06:26:15.373Z,74340.98
2019-03-12T06:28:57.434Z,74285.36
2019-03-12T06:31:37.961Z,74242.66
2019-03-12T06:34:19.062Z,74223.78
2019-03-12T06:37:02.160Z,74250.60
2019-03-12T06:39:43.203Z,74238.69
2019-03-12T06:42:23.655Z,74284.38
2019-03-12T06:45:04.181Z,74274.44
2019-03-12T06:47:46.583Z,74225.77
2019-03-12T06:50:28.425Z,74239.67
2019-03-12T06:53:08.633Z,74296.29
2019-03-12T06:55:49.219Z,74351.91
2019-03-12T06:58:29.709Z,74320.13
2019-03-12T07:01:10.031Z,74289.34
2019-03-12T07:03:52.013Z,74233.72
2019-03-12T07:06:33.469Z,74234.71
2019-03-12T07:09:14.871Z,74238.69
2019-03-12T07:11:55.254Z,74187.04
2019-03-12T07:14:35.355Z,74175.13
2019-03-12T07:17:15.327Z,74131.42
2019-03-12T07:19:55.808Z,74153.27
2019-03-12T07:22:35.804Z,74159.23
2019-03-12T07:25:16.127Z,74140.36
2019-03-12T07:27:57.527Z,74094.67
2019-03-12T07:30:39.403Z,74080.77
2019-03-12T07:33:20.058Z,74131.42
2019-03-12T07:36:00.833Z,74197.97
2019-03-12T07:38:41.226Z,74186.05
2019-03-12T07:46:28.381Z,74214.84
2019-03-12T07:49:08.796Z,74192.00
2019-03-12T07:51:48.935Z,74136.39
2019-03-12T07:54:32.803Z,74146.31
2019-03-12T07:57:13.271Z,74104.61
2019-03-12T08:02:38.389Z,74101.63
2019-03-12T08:05:18.796Z,74156.25
2019-03-12T08:07:59.706Z,74206.91
2019-03-12T08:10:40.268Z,74212.86
2019-03-12T08:13:20.917Z,74195.98
2019-03-12T08:16:00.967Z,74230.73
2019-03-12T08:18:41.329Z,74232.72
2019-03-12T08:21:22.639Z,74202.93
2019-03-12T08:24:03.114Z,74187.04
2019-03-12T08:26:43.558Z,74213.86
2019-03-12T08:29:24.426Z,74211.87
2019-03-12T08:32:05.245Z,74195.98
2019-03-12T08:34:46.332Z,74210.88
2019-03-12T08:37:26.674Z,74163.20
2019-03-12T08:40:06.685Z,74135.39
2019-03-12T08:42:54.478Z,74146.31
2019-03-12T08:45:28.381Z,74139.37
2019-03-12T08:48:08.759Z,74130.42
2019-03-12T08:50:48.895Z,74154.27
2019-03-12T08:53:28.966Z,74135.39
2019-03-12T08:56:10.401Z,74191.02
2019-03-12T08:58:52.607Z,74174.13
2019-03-12T09:01:35.756Z,74174.13
2019-03-12T09:04:18.398Z,74121.48
2019-03-12T09:07:05.049Z,74133.41
2019-03-12T09:09:45.511Z,74140.36
2019-03-12T09:12:26.238Z,74132.41
2019-03-12T09:17:54.898Z,74150.29
2019-03-12T09:20:34.935Z,74157.24
2019-03-12T09:23:15.079Z,74151.28
2019-03-12T09:25:55.232Z,74164.20
2019-03-12T09:28:36.212Z,74137.38
2019-03-12T09:31:16.350Z,74132.41
2019-03-12T09:33:56.602Z,74138.38
2019-03-12T09:36:37.098Z,74134.40
2019-03-12T09:39:17.071Z,74128.44
2019-03-12T09:41:57.071Z,74112.55
2019-03-12T09:44:37.420Z,74111.56
2019-03-12T09:47:17.265Z,74109.57
2019-03-12T09:49:58.134Z,74107.59
2019-03-12T09:52:38.932Z,74082.75
2019-03-12T09:55:21.908Z,74087.72
2019-03-12T09:58:02.957Z,74091.70
2019-03-12T10:00:43.537Z,74113.55
2019-03-12T10:03:23.475Z,74107.59
2019-03-12T10:06:04.128Z,74112.55
2019-03-12T10:08:44.200Z,74112.55
2019-03-12T10:11:24.399Z,74105.59
2019-03-12T10:14:04.627Z,74130.42
2019-03-12T10:16:45.187Z,74118.52
2019-03-12T10:19:26.083Z,74110.56
2019-03-12T10:22:06.293Z,74110.56
2019-03-12T10:24:47.024Z,74135.39
2019-03-12T10:27:27.190Z,74131.42
2019-03-12T10:30:07.235Z,74136.39
2019-03-12T10:32:47.862Z,74130.42
2019-03-12T10:35:28.117Z,74129.44
2019-03-12T10:38:11.867Z,74133.41
2019-03-12T10:40:54.348Z,74144.33
2019-03-12T10:43:36.423Z,74152.28
2019-03-12T10:46:26.421Z,74149.30
2019-03-12T10:48:58.208Z,74160.22
2019-03-12T10:51:28.765Z,74149.30
2019-03-12T10:53:59.511Z,74171.15
2019-03-12T10:56:29.861Z,74179.09
2019-03-12T10:59:02.090Z,74200.94
2019-03-12T11:01:32.341Z,74213.86
2019-03-12T11:04:02.595Z,74222.80
2019-03-12T11:06:32.741Z,74229.75
2019-03-12T11:09:06.680Z,74232.72
2019-03-12T11:11:36.269Z,74232.72
2019-03-12T11:14:06.166Z,74241.66
2019-03-12T11:16:35.526Z,74246.63
2019-03-12T11:19:04.519Z,74253.58
2019-03-12T11:21:34.399Z,74258.55
2019-03-12T11:24:04.435Z,74269.47
2019-03-12T11:26:34.273Z,74273.45
2019-03-12T11:29:03.628Z,74281.39
2019-03-12T11:31:32.994Z,74284.38
2019-03-12T11:34:02.609Z,74293.31
2019-03-12T11:36:32.190Z,74300.27
2019-03-12T11:39:01.962Z,74314.17
2019-03-12T11:41:31.783Z,74323.11
2019-03-12T11:44:01.845Z,74335.02
2019-03-12T11:46:41.823Z,74339.99
2019-03-12T11:49:02.009Z,74346.95
2019-03-12T11:51:32.174Z,74362.84
2019-03-12T11:54:02.517Z,74375.75
2019-03-12T11:56:32.613Z,74389.66
2019-03-12T11:59:05.019Z,74391.64
2019-03-12T12:01:35.786Z,74390.64
2019-03-12T12:04:06.035Z,74389.66
2019-03-12T12:06:36.457Z,74403.56
2019-03-12T12:09:06.513Z,74417.47
2019-03-12T12:11:36.906Z,74432.36
2019-03-12T12:14:07.304Z,74456.20
2019-03-12T12:16:37.367Z,74474.08
2019-03-12T12:19:09.696Z,74490.96
2019-03-12T12:21:39.867Z,74514.80
2019-03-12T12:24:09.759Z,74537.64
2019-03-12T12:26:39.705Z,74549.56
2019-03-12T12:29:09.988Z,74551.55
2019-03-12T12:31:47.175Z,74554.53
2019-03-12T12:34:21.025Z,74566.45
2019-03-12T12:36:55.149Z,74582.34
2019-03-12T12:39:30.747Z,74597.24
2019-03-12T12:42:04.515Z,74603.20
2019-03-12T12:44:39.439Z,74615.13
2019-03-12T12:47:17.121Z,74638.96
2019-03-12T12:49:50.864Z,74671.73
2019-03-12T12:52:20.327Z,74679.69
2019-03-12T12:54:49.377Z,74688.63
2019-03-12T12:58:00.641Z,74695.58
2019-03-12T13:00:29.950Z,74689.63
2019-03-12T13:02:59.069Z,74690.61
2019-03-12T13:05:28.323Z,74687.63
2019-03-12T13:10:36.025Z,74686.64
2019-03-12T13:13:05.314Z,74689.63
2019-03-12T13:15:34.831Z,74694.58
2019-03-12T13:18:04.281Z,74701.54
2019-03-12T13:20:34.046Z,74704.52
2019-03-12T13:23:03.354Z,74714.45
2019-03-12T13:25:32.876Z,74717.43
2019-03-12T13:28:02.165Z,74720.41
2019-03-12T13:30:31.445Z,74726.38
2019-03-12T13:33:01.082Z,74729.35
2019-03-12T13:35:30.477Z,74742.27
2019-03-12T13:37:59.569Z,74751.20
2019-03-12T13:40:28.919Z,74759.15
2019-03-12T13:42:58.389Z,74758.16
2019-03-12T13:45:28.020Z,74767.09
2019-03-12T13:47:57.449Z,74767.09
2019-03-12T13:50:26.510Z,74777.03
2019-03-12T13:52:55.957Z,74783.98
2019-03-12T13:55:25.513Z,74786.97
2019-03-12T13:57:55.437Z,74790.94
2019-03-12T14:00:25.549Z,74795.91
2019-03-12T14:02:55.035Z,74806.83
2019-03-12T14:05:24.527Z,74818.75
2019-03-12T14:07:54.643Z,74818.75
2019-03-12T14:10:23.965Z,74815.77
2019-03-12T14:12:52.843Z,74817.76
2019-03-12T14:15:22.319Z,74813.78
2019-03-12T14:17:51.648Z,74822.72
2019-03-12T14:20:21.190Z,74821.73
2019-03-12T14:22:50.659Z,74832.66
2019-03-12T14:25:20.193Z,74840.61
2019-03-12T14:27:49.677Z,74855.50
2019-03-12T14:30:19.087Z,74862.45
2019-03-12T14:32:48.485Z,74868.42
2019-03-12T14:35:17.987Z,74876.36
2019-03-12T14:37:47.719Z,74879.34
2019-03-12T14:40:17.761Z,74877.36
2019-03-12T14:42:46.904Z,74885.30
2019-03-12T14:45:16.415Z,74884.31
2019-03-12T14:47:45.717Z,74883.32
2019-03-12T14:50:15.020Z,74890.27
2019-03-12T14:52:44.521Z,74906.16
2019-03-12T14:55:14.035Z,74906.16
2019-03-12T14:57:43.742Z,74912.13
2019-03-12T15:00:13.260Z,74913.12
2019-03-12T15:02:42.737Z,74916.09
2019-03-12T15:05:12.281Z,74925.04
2019-03-12T15:07:42.298Z,74925.04
2019-03-12T15:10:11.875Z,74935.97
2019-03-12T15:12:41.795Z,74936.95
2019-03-12T15:15:11.331Z,74945.90
2019-03-12T15:17:41.343Z,74946.89
2019-03-12T15:20:10.926Z,74948.88
2019-03-12T15:22:40.541Z,74950.86
2019-03-12T15:25:10.127Z,74957.82
2019-03-12T15:27:39.652Z,74963.78
2019-03-12T15:30:08.732Z,74972.72
2019-03-12T15:32:38.070Z,74975.70
2019-03-12T15:35:07.539Z,74982.66
2019-03-12T15:37:37.299Z,74982.66
2019-03-12T15:40:06.784Z,74987.63
2019-03-12T15:42:36.641Z,74987.63
2019-03-12T15:45:06.163Z,74990.60
2019-03-12T15:47:38.727Z,74993.58
2019-03-12T15:50:09.658Z,75000.53
2019-03-12T16:07:52.556Z,75021.39
2019-03-12T16:10:22.339Z,75021.39
2019-03-12T16:12:51.633Z,75028.35
2019-03-12T16:15:21.128Z,75032.33
2019-03-12T16:17:50.869Z,75039.28
2019-03-12T16:20:20.168Z,75040.27
2019-03-12T16:22:49.671Z,75037.29
2019-03-12T16:25:18.732Z,75036.30
2019-03-12T16:27:47.977Z,75044.24
2019-03-12T16:30:17.365Z,75049.21
2019-03-12T16:32:47.943Z,75050.20
2019-03-12T16:35:22.566Z,75053.19
2019-03-12T16:37:54.664Z,75047.22
2019-03-12T16:40:24.796Z,75057.16
2019-03-12T16:42:54.079Z,75062.13
2019-03-12T16:45:23.385Z,75065.11
2019-03-12T16:47:57.096Z,75065.11
2019-03-12T16:50:33.804Z,75065.11
2019-03-12T16:53:05.520Z,75070.08
2019-03-12T16:55:39.973Z,75072.06
2019-03-12T16:58:11.288Z,75084.97
2019-03-12T17:00:45.479Z,75077.02
2019-03-12T17:03:23.397Z,75077.02
2019-03-12T17:05:58.730Z,75084.97
2019-03-12T17:08:34.166Z,75081.00
2019-03-12T17:11:10.396Z,75086.96
2019-03-12T17:13:47.699Z,75093.91
2019-03-12T17:16:23.724Z,75087.95
2019-03-12T17:18:56.943Z,75093.91
2019-03-12T17:21:32.744Z,75089.94
2019-03-12T17:24:10.732Z,75090.94
2019-03-12T17:26:47.983Z,75092.92
2019-03-12T17:29:27.581Z,75092.92
2019-03-12T17:34:41.711Z,75092.92
2019-03-12T17:37:17.060Z,75097.89
2019-03-12T17:39:50.058Z,75101.86
2019-03-12T17:42:21.021Z,75098.88
2019-03-12T17:44:51.604Z,75101.86
2019-03-12T17:47:21.824Z,75101.86
2019-03-12T17:49:51.768Z,75097.89
2019-03-12T17:52:21.819Z,75099.88
2019-03-12T17:54:51.512Z,75097.89
2019-03-12T17:57:22.476Z,75098.88
2019-03-12T17:59:52.233Z,75097.89
2019-03-12T18:02:22.617Z,75102.86
2019-03-12T18:04:53.026Z,75102.86
2019-03-12T18:07:23.421Z,75109.81
2019-03-12T18:09:53.233Z,75105.84
2019-03-12T18:12:23.906Z,75106.83
2019-03-12T18:14:53.862Z,75106.83
2019-03-12T18:17:24.384Z,75105.84
2019-03-12T18:19:54.474Z,75104.84
2019-03-12T18:22:25.248Z,75105.84
2019-03-12T18:24:55.032Z,75106.83
2019-03-12T18:27:25.020Z,75098.88
2019-03-12T18:29:54.784Z,75093.91
2019-03-12T18:32:25.497Z,75095.91
2019-03-12T18:34:55.396Z,75093.91
2019-03-12T18:37:26.355Z,75088.95
2019-03-12T18:39:57.017Z,75085.97
2019-03-12T18:42:27.372Z,75081.99
2019-03-12T18:44:57.576Z,75085.97
2019-03-12T18:47:27.340Z,75082.98
2019-03-12T18:49:57.016Z,75082.98
2019-03-12T18:52:27.480Z,75084.97
2019-03-12T18:54:57.479Z,75085.97
2019-03-12T18:57:27.258Z,75089.94
2019-03-12T18:59:57.415Z,75086.96
2019-03-12T19:02:27.441Z,75084.97
2019-03-12T19:04:57.816Z,75083.98
2019-03-12T19:07:27.635Z,75085.97
2019-03-12T19:09:58.208Z,75085.97
2019-03-12T19:12:28.054Z,75080.00
2019-03-12T19:14:57.414Z,75082.98
2019-03-12T19:17:27.357Z,75078.02
2019-03-12T19:19:57.408Z,75075.04
2019-03-12T19:22:27.486Z,75078.02
2019-03-12T19:24:57.703Z,75071.06
2019-03-12T19:27:28.220Z,75066.09
2019-03-12T19:29:58.298Z,75060.14
2019-03-12T19:32:28.757Z,75057.16
2019-03-12T19:34:58.957Z,75048.22
2019-03-12T19:37:29.501Z,75051.20
2019-03-12T19:39:59.971Z,75057.16
2019-03-12T19:42:30.296Z,75053.19
2019-03-12T19:44:59.663Z,75050.20
2019-03-12T19:47:30.455Z,75045.23
2019-03-12T19:50:00.926Z,75041.27
2019-03-12T19:52:30.939Z,75033.31
2019-03-12T19:55:01.535Z,75037.29
2019-03-12T19:57:31.421Z,75038.28
2019-03-12T20:00:01.220Z,75037.29
2019-03-12T20:02:30.726Z,75040.27
2019-03-12T20:05:00.536Z,75041.27
2019-03-12T20:07:30.798Z,75036.30
2019-03-12T20:10:00.815Z,75033.31
2019-03-12T20:12:31.128Z,75021.39
2019-03-12T20:15:01.333Z,75028.35
2019-03-12T20:17:31.422Z,75027.36
2019-03-12T20:20:01.498Z,75026.36
2019-03-12T20:22:31.325Z,75022.39
2019-03-12T20:25:01.711Z,75018.41
2019-03-12T20:27:32.388Z,75020.41
2019-03-12T20:30:02.139Z,75026.36
2019-03-12T20:32:31.733Z,75015.44
2019-03-12T20:35:05.000Z,75013.45
2019-03-12T20:37:33.130Z,75015.44
2019-03-12T20:40:02.534Z,75003.52
2019-03-12T20:42:32.871Z,75010.47
2019-03-12T20:45:02.616Z,75008.48
2019-03-12T20:47:33.372Z,75011.47
2019-03-12T20:50:03.487Z,75009.48
2019-03-12T20:52:33.311Z,75007.48
2019-03-12T20:55:03.176Z,75010.47
2019-03-12T20:57:33.377Z,75005.50
2019-03-12T21:00:03.059Z,75008.48
2019-03-12T21:02:33.234Z,75005.50
2019-03-12T21:05:03.335Z,75001.53
2019-03-12T21:07:33.126Z,75000.53
2019-03-12T21:10:03.164Z,74998.55
2019-03-12T21:12:33.187Z,74997.55
2019-03-12T21:15:03.260Z,74999.55
2019-03-12T21:17:33.083Z,75001.53
2019-03-12T21:20:03.110Z,74998.55
2019-03-12T21:22:33.853Z,74999.55
2019-03-12T21:25:04.160Z,74996.56
2019-03-12T21:27:33.985Z,74995.56
2019-03-12T21:30:04.060Z,74987.63
2019-03-12T21:32:34.222Z,74993.58
2019-03-12T21:35:04.721Z,74993.58
2019-03-12T21:37:35.267Z,74986.63
2019-03-12T21:40:05.308Z,74984.64
2019-03-12T21:42:35.482Z,74983.65
2019-03-12T21:45:06.151Z,74983.65
2019-03-12T21:47:35.660Z,74978.68
2019-03-12T21:50:05.377Z,74973.72
2019-03-12T21:52:35.412Z,74974.70
2019-03-12T21:55:05.251Z,74971.73
2019-03-12T21:57:35.264Z,74981.66
2019-03-12T22:00:05.021Z,74977.69
2019-03-12T22:02:35.450Z,74975.70
2019-03-12T22:05:05.820Z,74976.69
2019-03-12T22:07:36.608Z,74977.69
2019-03-12T22:10:06.942Z,74978.68
2019-03-12T22:12:36.705Z,74972.72
2019-03-12T22:15:06.877Z,74976.69
2019-03-12T22:17:36.543Z,74976.69
2019-03-12T22:20:07.014Z,74972.72
2019-03-12T22:22:36.822Z,74969.74
2019-03-12T22:25:06.784Z,74968.75
2019-03-12T22:27:36.654Z,74969.74
2019-03-12T22:30:06.346Z,74969.74
2019-03-12T22:32:36.699Z,74967.75
2019-03-12T22:35:06.862Z,74968.75
2019-03-12T22:37:36.614Z,74971.73
2019-03-12T22:40:06.071Z,74972.72
2019-03-12T22:42:36.436Z,74975.70
2019-03-12T22:45:06.505Z,74977.69
2019-03-12T22:47:36.628Z,74979.67
2019-03-12T22:50:06.297Z,74978.68
2019-03-12T22:52:36.374Z,74975.70
2019-03-12T22:55:06.447Z,74977.69
2019-03-12T22:57:35.809Z,74983.65
2019-03-12T23:00:06.036Z,74984.64
2019-03-12T23:02:36.005Z,74986.63
2019-03-12T23:05:05.890Z,74998.55
2019-03-12T23:07:35.630Z,75001.53
2019-03-12T23:10:05.332Z,75006.50
2019-03-12T23:12:35.936Z,75011.47
2019-03-12T23:15:05.555Z,75015.44
2019-03-12T23:17:35.318Z,75021.39
2019-03-12T23:20:05.026Z,75034.31
2019-03-12T23:22:35.322Z,75045.23
2019-03-12T23:25:05.506Z,75046.23
2019-03-12T23:27:35.270Z,75051.20
2019-03-12T23:30:04.752Z,75056.16
2019-03-12T23:32:34.837Z,75058.16
2019-03-12T23:35:04.868Z,75058.16
2019-03-12T23:37:34.357Z,75062.13
2019-03-12T23:40:04.059Z,75065.11
2019-03-12T23:42:34.155Z,75069.08
2019-03-12T23:45:04.544Z,75068.09
2019-03-12T23:47:34.654Z,75080.00
2019-03-12T23:50:04.606Z,75085.97
2019-03-12T23:52:34.464Z,75084.97
2019-03-12T23:55:04.568Z,75085.97
